createdAt,value
2018-07-12T06:39:09.845Z,99.90
2018-07-12T06:41:38.440Z,99.90
2018-07-12T06:44:07.298Z,99.90
2018-07-12T06:46:36.776Z,99.90
2018-07-12T06:49:05.431Z,99.90
2018-07-12T06:51:34.222Z,99.90
2018-07-12T06:54:02.913Z,99.90
2018-07-12T06:56:31.511Z,99.90
2018-07-12T06:59:00.006Z,99.90
2018-07-12T07:01:28.507Z,99.90
2018-07-12T07:03:57.082Z,99.90
2018-07-12T07:06:25.629Z,99.90
2018-07-12T07:08:54.168Z,99.90
2018-07-12T07:11:22.714Z,99.90
2018-07-12T07:13:51.350Z,99.90
2018-07-12T07:16:20.733Z,99.90
2018-07-12T07:18:49.251Z,99.90
2018-07-12T07:21:17.882Z,99.90
2018-07-12T07:23:46.499Z,99.90
2018-07-12T07:28:43.418Z,99.90
2018-07-12T07:31:12.002Z,99.90
2018-07-12T07:33:40.699Z,99.90
2018-07-12T07:36:09.194Z,99.90
2018-07-12T07:38:37.764Z,99.90
2018-07-12T07:41:06.908Z,99.90
2018-07-12T07:43:35.525Z,99.90
2018-07-12T07:46:04.157Z,99.90
2018-07-12T07:48:32.756Z,99.90
2018-07-12T07:51:01.379Z,99.90
2018-07-12T07:53:30.122Z,99.90
2018-07-12T07:55:58.740Z,99.90
2018-07-12T07:58:27.316Z,99.90
2018-07-12T08:00:55.861Z,99.90
2018-07-12T08:05:52.582Z,99.90
2018-07-12T08:08:21.165Z,99.90
2018-07-12T08:10:49.706Z,99.90
2018-07-12T08:13:18.318Z,99.90
2018-07-12T08:15:46.814Z,99.90
2018-07-12T08:18:15.441Z,99.90
2018-07-12T08:20:43.999Z,99.90
2018-07-12T08:23:12.591Z,99.90
2018-07-12T08:25:41.109Z,99.50
2018-07-12T08:28:21.153Z,98.40
2018-07-12T08:30:49.725Z,97.40
2018-07-12T08:33:18.337Z,97.30
2018-07-12T08:35:47.001Z,97.40
2018-07-12T08:38:15.881Z,96.90
2018-07-12T08:40:44.459Z,96.90
2018-07-12T08:43:13.207Z,96.80
2018-07-12T08:45:41.827Z,95.80
2018-07-12T08:48:11.318Z,95.70
2018-07-12T08:50:39.967Z,95.50
2018-07-12T08:53:08.880Z,94.80
2018-07-12T08:55:37.446Z,93.90
2018-07-12T08:58:06.030Z,93.40
2018-07-12T09:00:34.589Z,92.40
2018-07-12T09:03:03.532Z,92.00
2018-07-12T09:05:32.106Z,91.80
2018-07-12T09:12:20.199Z,89.30
2018-07-12T09:14:51.256Z,89.50
2018-07-12T09:17:19.793Z,85.50
2018-07-12T09:19:48.298Z,85.20
2018-07-12T09:22:16.929Z,82.30
2018-07-12T09:24:46.098Z,82.70
2018-07-12T09:27:14.674Z,83.00
2018-07-12T09:29:43.216Z,81.90
2018-07-12T09:32:11.813Z,80.50
2018-07-12T09:34:40.351Z,80.00
2018-07-12T09:37:08.875Z,79.50
2018-07-12T09:39:37.479Z,79.80
2018-07-12T09:42:06.104Z,78.30
2018-07-12T09:44:34.705Z,77.60
2018-07-12T09:47:03.490Z,75.90
2018-07-12T09:49:31.996Z,77.10
2018-07-12T09:52:00.549Z,76.70
2018-07-12T09:54:29.056Z,76.50
2018-07-12T09:57:08.715Z,75.60
2018-07-12T09:59:37.351Z,75.10
2018-07-12T10:02:11.294Z,74.50
2018-07-12T10:04:39.823Z,74.80
2018-07-12T10:08:11.802Z,74.50
2018-07-12T10:10:45.640Z,74.00
2018-07-12T10:13:19.660Z,73.60
2018-07-12T10:15:52.406Z,73.40
2018-07-12T10:18:24.034Z,71.20
2018-07-12T10:20:52.608Z,70.20
2018-07-12T10:23:21.194Z,71.00
2018-07-12T10:25:49.722Z,70.30
2018-07-12T10:28:18.264Z,70.40
2018-07-12T10:30:47.215Z,69.60
2018-07-12T10:33:16.120Z,69.70
2018-07-12T10:35:44.668Z,69.70
2018-07-12T10:38:13.182Z,70.00
2018-07-12T10:40:41.888Z,69.50
2018-07-12T10:43:10.464Z,69.50
2018-07-12T10:45:39.222Z,69.70
2018-07-12T10:48:07.855Z,69.60
2018-07-12T10:50:36.729Z,68.80
2018-07-12T10:53:05.410Z,67.60
2018-07-12T10:55:33.890Z,67.90
2018-07-12T10:58:02.403Z,66.90
2018-07-12T11:00:30.928Z,65.70
2018-07-12T11:02:59.552Z,65.10
2018-07-12T11:05:28.065Z,64.50
2018-07-12T11:07:56.637Z,63.50
2018-07-12T11:10:25.190Z,64.30
2018-07-12T11:13:05.156Z,64.10
2018-07-12T11:15:33.687Z,64.30
2018-07-12T11:18:02.275Z,63.30
2018-07-12T11:20:31.548Z,62.20
2018-07-12T11:23:00.196Z,62.10
2018-07-12T11:25:29.064Z,60.30
2018-07-12T11:27:57.590Z,60.60
2018-07-12T11:30:26.128Z,61.20
2018-07-12T11:32:54.736Z,60.90
2018-07-12T11:35:23.311Z,60.30
2018-07-12T11:37:52.579Z,60.70
2018-07-12T11:40:21.111Z,60.90
2018-07-12T11:42:49.812Z,60.70
2018-07-12T11:45:18.404Z,60.20
2018-07-12T11:47:46.954Z,59.70
2018-07-12T11:50:15.524Z,58.30
2018-07-12T11:52:44.801Z,58.70
2018-07-12T11:55:13.218Z,59.10
2018-07-12T11:57:42.106Z,59.00
2018-07-12T12:00:10.664Z,59.20
2018-07-12T12:02:39.268Z,59.30
2018-07-12T12:05:07.801Z,59.30
2018-07-12T12:07:36.327Z,58.30
2018-07-12T12:10:04.842Z,58.10
2018-07-12T12:12:33.395Z,58.10
2018-07-12T12:15:01.887Z,58.10
2018-07-12T12:17:30.460Z,58.60
2018-07-12T12:19:58.961Z,58.50
2018-07-12T12:22:27.522Z,56.50
2018-07-12T12:24:56.019Z,56.20
2018-07-12T12:27:24.622Z,55.80
2018-07-12T12:29:53.293Z,55.70
2018-07-12T12:32:21.797Z,56.50
2018-07-12T12:34:50.365Z,55.20
2018-07-12T12:37:18.976Z,54.00
2018-07-12T12:39:47.521Z,53.50
2018-07-12T12:42:16.108Z,53.60
2018-07-12T12:44:44.656Z,53.60
2018-07-12T12:47:13.184Z,54.30
2018-07-12T12:52:09.847Z,53.60
2018-07-12T12:54:38.362Z,54.40
2018-07-12T12:57:07.011Z,55.10
2018-07-12T12:59:35.614Z,54.90
2018-07-12T13:02:04.158Z,54.10
2018-07-12T13:04:32.710Z,53.70
2018-07-12T13:07:01.288Z,52.50
2018-07-12T13:09:29.852Z,52.40
2018-07-12T13:11:58.442Z,52.60
2018-07-12T13:14:27.075Z,51.70
2018-07-12T13:16:55.556Z,50.40
2018-07-12T13:19:24.111Z,50.40
2018-07-12T13:21:52.590Z,50.50
2018-07-12T13:24:21.303Z,49.40
2018-07-12T13:26:49.924Z,48.90
2018-07-12T13:29:18.534Z,48.50
2018-07-12T13:31:47.046Z,48.60
2018-07-12T13:34:15.577Z,49.10
2018-07-12T13:36:44.108Z,49.60
2018-07-12T13:39:12.695Z,49.90
2018-07-12T13:41:41.174Z,49.90
2018-07-12T13:44:18.301Z,49.70
2018-07-12T13:46:47.851Z,50.30
2018-07-12T13:49:16.711Z,50.70
2018-07-12T13:51:46.783Z,51.00
2018-07-12T13:54:16.846Z,50.70
2018-07-12T13:56:45.480Z,48.90
2018-07-12T13:59:14.055Z,48.20
2018-07-12T14:01:43.211Z,47.40
2018-07-12T14:04:12.085Z,44.70
2018-07-12T14:06:40.689Z,43.10
2018-07-12T14:09:12.033Z,38.90
2018-07-12T14:11:40.603Z,32.60
2018-07-12T14:14:09.603Z,26.70
2018-07-12T14:16:38.154Z,21.50
2018-07-12T14:19:07.749Z,19.40
2018-07-12T14:21:36.381Z,17.50
2018-07-12T14:24:04.898Z,15.90
2018-07-12T14:26:33.422Z,16.60
2018-07-12T14:29:01.966Z,18.00
2018-07-12T14:31:30.540Z,19.70
2018-07-12T14:33:59.171Z,21.50
2018-07-12T14:36:27.707Z,23.80
2018-07-12T14:38:56.278Z,26.10
2018-07-12T14:41:24.823Z,27.90
2018-07-12T14:43:53.428Z,29.60
2018-07-12T14:46:21.946Z,30.60
2018-07-12T14:48:50.492Z,30.80
2018-07-12T14:51:19.009Z,31.20
2018-07-12T14:53:47.621Z,32.10
2018-07-12T14:56:16.783Z,33.80
2018-07-12T14:58:45.368Z,35.60
2018-07-12T15:01:13.884Z,36.30
2018-07-12T15:03:42.543Z,33.60
2018-07-12T15:06:11.070Z,33.30
2018-07-12T15:08:39.724Z,33.90
2018-07-12T15:11:08.381Z,34.70
2018-07-12T15:13:37.036Z,35.40
2018-07-12T15:16:05.699Z,35.50
2018-07-12T15:18:34.270Z,38.70
2018-07-12T15:21:02.875Z,39.80
2018-07-12T15:23:31.438Z,42.50
2018-07-12T15:26:00.058Z,44.50
2018-07-12T15:28:29.798Z,45.40
2018-07-12T15:30:58.350Z,46.20
2018-07-12T15:33:26.922Z,46.80
2018-07-12T15:35:56.330Z,47.30
2018-07-12T15:38:24.830Z,48.70
2018-07-12T15:40:54.295Z,50.60
2018-07-12T15:43:22.876Z,51.50
2018-07-12T15:45:51.399Z,51.60
2018-07-12T15:48:20.059Z,53.40
2018-07-12T15:50:48.580Z,53.70
2018-07-12T15:53:17.277Z,55.30
2018-07-12T15:55:45.859Z,54.80
2018-07-12T15:58:14.414Z,55.30
2018-07-12T16:00:42.981Z,55.40
2018-07-12T16:03:11.586Z,55.40
2018-07-12T16:05:40.242Z,52.10
2018-07-12T16:08:08.785Z,52.10
2018-07-12T16:10:38.069Z,52.00
2018-07-12T16:13:06.950Z,52.80
2018-07-12T16:15:35.531Z,53.40
2018-07-12T16:18:04.063Z,55.20
2018-07-12T16:20:32.665Z,56.20
2018-07-12T16:23:01.236Z,56.10
2018-07-12T16:25:29.869Z,54.00
2018-07-12T16:27:58.511Z,48.90
2018-07-12T16:30:27.047Z,46.60
2018-07-12T16:32:55.755Z,46.30
2018-07-12T16:35:24.426Z,45.90
2018-07-12T16:37:52.941Z,44.90
2018-07-12T16:40:21.499Z,45.90
2018-07-12T16:42:50.315Z,47.20
2018-07-12T16:45:18.949Z,49.00
2018-07-12T16:47:47.646Z,49.90
2018-07-12T16:50:16.240Z,50.70
2018-07-12T16:52:44.845Z,51.90
2018-07-12T16:55:13.732Z,54.10
2018-07-12T16:57:42.359Z,54.10
2018-07-12T17:00:10.911Z,56.80
2018-07-12T17:02:39.754Z,58.30
2018-07-12T17:05:08.534Z,59.70
2018-07-12T17:07:37.113Z,60.50
2018-07-12T17:10:05.731Z,62.00
2018-07-12T17:12:34.398Z,63.50
2018-07-12T17:15:03.041Z,64.90
2018-07-12T17:17:31.582Z,67.40
2018-07-12T17:20:00.126Z,68.40
2018-07-12T17:22:28.646Z,70.00
2018-07-12T17:24:57.248Z,71.30
2018-07-12T17:27:25.818Z,72.00
2018-07-12T17:29:54.353Z,73.60
2018-07-12T17:32:22.912Z,74.20
2018-07-12T17:34:51.470Z,75.10
2018-07-12T17:37:20.036Z,76.00
2018-07-12T17:39:48.735Z,75.90
2018-07-12T17:42:17.348Z,76.50
2018-07-12T17:44:45.867Z,77.40
2018-07-12T17:47:14.565Z,78.50
2018-07-12T17:49:43.710Z,79.60
2018-07-12T17:52:13.456Z,80.60
2018-07-12T17:54:42.014Z,81.00
2018-07-12T17:57:10.515Z,81.40
2018-07-12T17:59:39.023Z,80.90
2018-07-12T18:02:07.739Z,81.90
2018-07-12T18:04:36.574Z,82.40
2018-07-12T18:07:05.147Z,82.70
2018-07-12T18:09:33.847Z,80.50
2018-07-12T18:12:02.399Z,78.60
2018-07-12T18:14:30.995Z,77.10
2018-07-12T18:16:59.627Z,77.60
2018-07-12T18:19:29.019Z,78.80
2018-07-12T18:21:57.643Z,78.60
2018-07-12T18:24:26.273Z,78.30
2018-07-12T18:26:54.851Z,77.70
2018-07-12T18:29:23.422Z,76.10
2018-07-12T18:31:51.998Z,76.00
2018-07-12T18:34:20.653Z,77.20
2018-07-12T18:36:49.195Z,78.30
2018-07-12T18:39:17.725Z,79.10
2018-07-12T18:41:46.271Z,80.40
2018-07-12T18:44:14.837Z,81.50
2018-07-12T18:46:43.323Z,83.10
2018-07-12T18:49:11.897Z,84.10
2018-07-12T18:51:40.503Z,84.50
2018-07-12T18:54:09.021Z,86.20
2018-07-12T18:56:37.538Z,85.70
2018-07-12T18:59:06.043Z,85.80
2018-07-12T19:01:34.539Z,87.70
2018-07-12T19:04:03.271Z,89.00
2018-07-12T19:06:31.804Z,90.10
2018-07-12T19:09:00.412Z,90.90
2018-07-12T19:11:29.006Z,91.20
2018-07-12T19:13:57.660Z,91.70
2018-07-12T19:16:26.202Z,92.50
2018-07-12T19:18:54.756Z,93.50
2018-07-12T19:21:23.309Z,95.10
2018-07-12T19:23:52.020Z,96.80
2018-07-12T19:26:20.571Z,98.20
2018-07-12T19:31:17.356Z,98.30
2018-07-12T19:33:45.957Z,98.80
2018-07-12T19:36:16.664Z,99.40
2018-07-12T19:38:45.303Z,99.90
2018-07-12T19:41:13.848Z,98.00
2018-07-12T19:43:42.484Z,97.40
2018-07-12T19:46:11.044Z,97.10
2018-07-12T19:48:39.550Z,97.30
2018-07-12T19:51:08.531Z,97.00
2018-07-12T19:53:37.140Z,97.00
2018-07-12T19:56:06.027Z,97.10
2018-07-12T19:58:34.708Z,97.20
2018-07-12T20:01:03.316Z,97.50
2018-07-12T20:03:32.071Z,97.60
2018-07-12T20:06:00.633Z,97.60
2018-07-12T20:08:29.218Z,97.80
2018-07-12T20:10:58.552Z,97.80
2018-07-12T20:15:55.494Z,98.00
2018-07-12T20:18:24.038Z,98.20
2018-07-12T20:20:52.615Z,98.20
2018-07-12T20:23:21.194Z,98.40
2018-07-12T20:25:49.740Z,98.50
2018-07-12T20:30:46.638Z,99.10
2018-07-12T20:33:15.377Z,99.20
2018-07-12T20:35:43.955Z,99.10
2018-07-12T20:38:12.586Z,99.20
2018-07-12T20:40:41.161Z,99.50
2018-07-12T20:43:10.754Z,99.60
2018-07-12T20:45:39.254Z,99.90
2018-07-12T20:48:07.853Z,99.90
2018-07-12T20:50:36.454Z,99.90
2018-07-12T20:53:05.086Z,99.90
2018-07-12T20:55:33.964Z,99.90
2018-07-12T20:58:02.549Z,99.90
2018-07-12T21:00:31.384Z,99.90
2018-07-12T21:03:00.052Z,99.90
2018-07-12T21:05:28.644Z,99.90
2018-07-12T21:07:57.187Z,99.90
2018-07-12T21:10:25.776Z,99.90
2018-07-12T21:12:54.431Z,99.90
2018-07-12T21:15:23.004Z,99.90
2018-07-12T21:17:51.584Z,99.90
2018-07-12T21:20:22.038Z,99.90
2018-07-12T21:22:50.784Z,99.90
2018-07-12T21:25:19.337Z,99.90
2018-07-12T21:27:47.991Z,99.90
2018-07-12T21:30:16.807Z,99.90
2018-07-12T21:32:47.892Z,99.90
2018-07-12T21:35:16.635Z,99.90
2018-07-12T21:37:45.283Z,99.90
2018-07-12T21:40:13.839Z,99.90
2018-07-12T21:42:42.485Z,99.90
2018-07-12T21:45:11.152Z,99.90
2018-07-12T21:47:40.769Z,99.90
2018-07-12T21:50:09.390Z,99.90
2018-07-12T21:52:38.909Z,99.90
2018-07-12T21:55:07.820Z,99.90
2018-07-12T21:57:36.361Z,99.90
2018-07-12T22:00:08.066Z,99.90
2018-07-12T22:02:36.797Z,99.90
2018-07-12T22:05:06.329Z,99.90
2018-07-12T22:08:39.762Z,99.90
2018-07-12T22:11:08.500Z,99.90
2018-07-12T22:13:38.065Z,99.90
2018-07-12T22:16:06.648Z,99.90
2018-07-12T22:18:35.167Z,99.90
2018-07-12T22:21:03.763Z,99.90
2018-07-12T22:23:32.386Z,99.90
2018-07-12T22:26:00.968Z,99.90
2018-07-12T22:28:29.513Z,99.90
2018-07-12T22:30:58.121Z,99.90
2018-07-12T22:33:26.835Z,99.90
2018-07-12T22:35:56.216Z,99.90
2018-07-12T22:38:24.907Z,99.90
2018-07-12T22:40:55.567Z,99.90
2018-07-12T22:43:24.161Z,99.90
2018-07-12T22:45:52.816Z,99.90
2018-07-12T22:48:22.121Z,99.90
2018-07-12T22:50:52.426Z,99.90
2018-07-12T22:53:24.024Z,99.90
2018-07-12T22:55:53.106Z,99.90
2018-07-12T22:58:22.926Z,99.90
2018-07-12T23:00:53.794Z,99.90
